Time;durP1;ratioP1;P1;durP2;ratioP2;P2;SDS_P1;SDS_P2;PMS_P1;PMS_P2;Temp;Humidity;BMP_temperature;BMP_pressure;BME280_temperature;BME280_humidity;BME280_pressure;Samples;Min_cycle;Max_cycle;Signal;HPM_P1;HPM_P2
2021/10/15 00:00:58;;;;;;;;;;;;;;;21.43;55.27;99746.56;2092204;28;861;-64
2021/10/15 00:01:58;;;;;;;;;;;;;;;21.42;54.68;99740.28;2091300;28;838;-62
2021/10/15 00:03:00;;;;;;;;;;;;;;;21.44;54.83;99740.22;2092143;28;985;-63
2021/10/15 00:04:00;;;;;;;;;;;;;;;21.43;54.84;99747.41;2092101;28;830;-62
2021/10/15 00:05:00;;;;;;;;;;;;;;;21.41;55.09;99738.53;2092159;28;973;-62
2021/10/15 00:06:01;;;;;;;;;;;;;;;21.44;54.62;99745.59;2092230;28;993;-63
2021/10/15 00:07:01;;;;;;;;;;;;;;;21.40;54.96;99736.78;2092000;28;859;-61
2021/10/15 00:08:01;;;;;;;;;;;;;;;21.44;55.29;99741.06;2092123;28;988;-63
2021/10/15 00:09:01;;;;;;;;;;;;;;;21.39;54.86;99740.44;2092145;28;775;-61
2021/10/15 00:10:03;;;;;;;;;;;;;;;21.39;55.40;99744.97;2091910;28;1047;-63
2021/10/15 00:11:03;;;;;;;;;;;;;;;21.40;54.90;99731.41;2092066;28;1182;-62
2021/10/15 00:12:04;;;;;;;;;;;;;;;21.40;54.93;99738.63;2091824;28;1028;-62
2021/10/15 00:13:04;;;;;;;;;;;;;;;21.38;55.48;99733.31;2092098;28;862;-63
2021/10/15 00:14:04;;;;;;;;;;;;;;;21.35;55.47;99746.94;2092050;28;984;-61
2021/10/15 00:15:04;;;;;;;;;;;;;;;21.38;54.43;99736.00;2091848;28;999;-64
2021/10/15 00:16:05;;;;;;;;;;;;;;;21.37;56.14;99731.56;2092116;28;802;-62
2021/10/15 00:17:06;;;;;;;;;;;;;;;21.36;54.73;99735.22;2091454;28;965;-63
2021/10/15 00:18:06;;;;;;;;;;;;;;;21.39;55.22;99729.66;2091273;28;1918;-62
2021/10/15 00:19:06;;;;;;;;;;;;;;;21.37;54.86;99718.09;2091970;28;984;-62
2021/10/15 00:20:07;;;;;;;;;;;;;;;21.38;55.03;99717.16;2092012;28;1139;-64
2021/10/15 00:21:07;;;;;;;;;;;;;;;21.37;53.97;99722.63;2091669;28;1106;-61
2021/10/15 00:22:07;;;;;;;;;;;;;;;21.37;54.74;99714.56;2091947;28;764;-65
2021/10/15 00:23:07;;;;;;;;;;;;;;;21.38;55.03;99719.84;2092001;28;981;-62
2021/10/15 00:24:07;;;;;;;;;;;;;;;21.35;55.48;99717.31;2091888;28;810;-63
2021/10/15 00:25:08;;;;;;;;;;;;;;;21.37;55.65;99722.63;2091928;28;984;-63
2021/10/15 00:26:08;;;;;;;;;;;;;;;21.36;55.28;99707.44;2091940;28;780;-62
2021/10/15 00:27:08;;;;;;;;;;;;;;;21.34;55.78;99715.56;2091839;28;961;-64
2021/10/15 00:28:08;;;;;;;;;;;;;;;21.33;54.79;99706.63;2091920;28;961;-62
2021/10/15 00:29:09;;;;;;;;;;;;;;;21.36;54.62;99721.75;2091810;28;775;-64
2021/10/15 00:30:09;;;;;;;;;;;;;;;21.36;54.98;99708.28;2091896;28;803;-61
2021/10/15 00:31:10;;;;;;;;;;;;;;;21.34;55.56;99718.28;2091625;28;1288;-64
2021/10/15 00:32:10;;;;;;;;;;;;;;;21.38;55.10;99709.06;2092001;28;792;-61
2021/10/15 00:33:10;;;;;;;;;;;;;;;21.37;55.05;99709.16;2091983;28;776;-63
2021/10/15 00:34:10;;;;;;;;;;;;;;;21.36;55.62;99710.97;2091940;28;981;-63
2021/10/15 00:35:10;;;;;;;;;;;;;;;21.34;55.82;99710.19;2091932;28;819;-62
2021/10/15 00:36:10;;;;;;;;;;;;;;;21.35;55.19;99706.53;2091875;28;780;-63
2021/10/15 00:37:11;;;;;;;;;;;;;;;21.37;54.67;99703.78;2087188;28;1200;-62
2021/10/15 00:38:12;;;;;;;;;;;;;;;21.37;54.75;99701.09;2083576;28;2019;-63
2021/10/15 00:39:12;;;;;;;;;;;;;;;21.35;55.11;99698.47;2083664;28;1000;-62
2021/10/15 00:40:12;;;;;;;;;;;;;;;21.34;54.67;99696.72;2083629;28;1521;-63
2021/10/15 00:41:12;;;;;;;;;;;;;;;21.34;54.97;99696.72;2083767;28;780;-63
2021/10/15 00:42:13;;;;;;;;;;;;;;;21.30;55.71;99697.84;2083237;28;977;-62
2021/10/15 00:43:14;;;;;;;;;;;;;;;21.33;55.46;99689.59;2083569;28;1032;-63
2021/10/15 00:44:14;;;;;;;;;;;;;;;21.32;54.64;99693.25;2083686;28;827;-62
2021/10/15 00:45:14;;;;;;;;;;;;;;;21.34;54.90;99685.94;2083276;28;1202;-63
2021/10/15 00:46:14;;;;;;;;;;;;;;;21.32;55.15;99688.75;2083488;28;773;-62
2021/10/15 00:47:14;;;;;;;;;;;;;;;21.34;54.66;99694.03;2082870;28;776;-62
2021/10/15 00:48:14;;;;;;;;;;;;;;;21.35;54.52;99687.69;2082728;28;966;-64
2021/10/15 00:49:15;;;;;;;;;;;;;;;21.36;55.55;99692.13;2083562;28;1172;-62
2021/10/15 00:50:15;;;;;;;;;;;;;;;21.31;55.74;99680.72;2083548;28;780;-64
2021/10/15 00:51:15;;;;;;;;;;;;;;;21.29;55.62;99678.13;2083339;28;866;-61
2021/10/15 00:52:16;;;;;;;;;;;;;;;21.31;55.08;99681.59;2083538;28;1002;-64
2021/10/15 00:53:16;;;;;;;;;;;;;;;21.33;55.82;99681.50;2083566;28;827;-61
2021/10/15 00:54:16;;;;;;;;;;;;;;;21.33;54.70;99677.00;2083382;28;1040;-62
2021/10/15 00:55:16;;;;;;;;;;;;;;;21.33;55.21;99677.00;2083433;28;977;-64
2021/10/15 00:56:16;;;;;;;;;;;;;;;21.32;55.77;99677.06;2083510;28;1036;-62
2021/10/15 00:57:17;;;;;;;;;;;;;;;21.33;54.89;99668.03;2083475;28;1340;-64
2021/10/15 00:58:17;;;;;;;;;;;;;;;21.33;54.37;99665.34;2083453;28;1890;-62
2021/10/15 00:59:17;;;;;;;;;;;;;;;21.34;54.58;99659.00;2083432;28;902;-63
2021/10/15 01:00:17;;;;;;;;;;;;;;;21.34;54.60;99667.09;2083424;28;1446;-62
2021/10/15 01:01:17;;;;;;;;;;;;;;;21.32;55.27;99663.59;2083561;28;1048;-63
2021/10/15 01:02:18;;;;;;;;;;;;;;;21.31;55.47;99665.44;2083401;28;756;-63
2021/10/15 01:03:18;;;;;;;;;;;;;;;21.32;55.21;99667.19;2083418;28;787;-62
2021/10/15 01:04:18;;;;;;;;;;;;;;;21.33;54.83;99663.53;2083441;28;843;-64
2021/10/15 01:05:18;;;;;;;;;;;;;;;21.35;55.41;99662.59;2083482;28;1370;-62
2021/10/15 01:06:19;;;;;;;;;;;;;;;21.35;54.39;99666.13;2083421;28;1017;-63
2021/10/15 01:07:19;;;;;;;;;;;;;;;21.32;55.07;99656.41;2083373;28;1043;-62
2021/10/15 01:08:19;;;;;;;;;;;;;;;21.33;54.37;99651.88;2083387;28;1301;-62
2021/10/15 01:09:22;;;;;;;;;;;;;;;21.34;54.51;99648.22;2083368;28;1235;-64
2021/10/15 01:10:23;;;;;;;;;;;;;;;21.33;54.97;99646.50;2083217;28;1134;-62
2021/10/15 01:11:23;;;;;;;;;;;;;;;21.35;54.45;99641.88;2083328;28;1185;-64
2021/10/15 01:12:23;;;;;;;;;;;;;;;21.33;55.02;99646.50;2083395;28;901;-62
2021/10/15 01:13:25;;;;;;;;;;;;;;;21.31;55.15;99640.31;2083341;28;643;-64
2021/10/15 01:14:26;;;;;;;;;;;;;;;21.33;54.84;99641.09;2083360;28;997;-62
2021/10/15 01:15:26;;;;;;;;;;;;;;;21.31;54.54;99640.31;2083214;28;925;-62
2021/10/15 01:16:28;;;;;;;;;;;;;;;21.32;55.23;99637.56;2083314;28;1020;-64
2021/10/15 01:17:28;;;;;;;;;;;;;;;21.31;54.78;99635.81;2083335;28;997;-62
2021/10/15 01:18:29;;;;;;;;;;;;;;;21.32;54.37;99629.47;2083116;28;1910;-64
2021/10/15 01:19:29;;;;;;;;;;;;;;;21.33;54.50;99625.84;2083184;28;842;-62
2021/10/15 01:20:29;;;;;;;;;;;;;;;21.31;55.16;99626.84;2083365;28;957;-64
2021/10/15 01:21:30;;;;;;;;;;;;;;;21.32;54.81;99623.22;2083305;28;829;-62
2021/10/15 01:22:30;;;;;;;;;;;;;;;21.33;54.50;99617.75;2083421;28;818;-63
2021/10/15 01:23:30;;;;;;;;;;;;;;;21.31;55.18;99618.78;2083220;28;853;-63
2021/10/15 01:24:32;;;;;;;;;;;;;;;21.29;54.63;99610.78;2083307;28;1064;-62
2021/10/15 01:25:33;;;;;;;;;;;;;;;21.35;54.22;99616.78;2083276;28;811;-64
2021/10/15 01:26:33;;;;;;;;;;;;;;;21.32;55.14;99613.31;2083388;28;771;-62
2021/10/15 01:27:33;;;;;;;;;;;;;;;21.31;54.90;99608.88;2083294;28;839;-64
2021/10/15 01:28:34;;;;;;;;;;;;;;;21.32;54.87;99609.75;2083278;28;961;-62
2021/10/15 01:29:35;;;;;;;;;;;;;;;21.32;55.00;99607.94;2083249;28;885;-63
2021/10/15 01:30:35;;;;;;;;;;;;;;;21.31;54.41;99605.31;2083127;28;1140;-62
2021/10/15 01:31:35;;;;;;;;;;;;;;;21.32;54.62;99602.53;2083364;28;826;-63
2021/10/15 01:32:36;;;;;;;;;;;;;;;21.31;54.27;99603.50;2083358;28;843;-64
2021/10/15 01:33:36;;;;;;;;;;;;;;;21.37;54.35;99604.13;2083231;28;1024;-62
2021/10/15 01:34:37;;;;;;;;;;;;;;;21.34;54.62;99597.06;2083266;28;956;-64
2021/10/15 01:35:37;;;;;;;;;;;;;;;21.34;54.50;99594.34;2082892;28;1354;-62
2021/10/15 01:36:37;;;;;;;;;;;;;;;21.32;55.06;99582.81;2083206;28;1225;-63
2021/10/15 01:37:38;;;;;;;;;;;;;;;21.37;55.02;99587.94;2083294;28;783;-63
2021/10/15 01:38:38;;;;;;;;;;;;;;;21.33;54.96;99587.22;2082803;28;1878;-62
2021/10/15 01:39:38;;;;;;;;;;;;;;;21.32;54.58;99586.38;2083176;28;1044;-64
2021/10/15 01:40:38;;;;;;;;;;;;;;;21.32;54.96;99581.00;2083259;28;811;-62
2021/10/15 01:41:38;;;;;;;;;;;;;;;21.33;55.46;99571.97;2083300;28;970;-64
2021/10/15 01:42:54;;;;;;;;;;;;;;;21.31;55.21;99575.69;2083197;28;1072;-63
2021/10/15 01:43:54;;;;;;;;;;;;;;;21.31;54.63;99575.69;2083005;28;803;-64
2021/10/15 01:44:54;;;;;;;;;;;;;;;21.31;54.61;99573.88;2083278;28;768;-62
2021/10/15 01:45:55;;;;;;;;;;;;;;;21.29;54.73;99578.47;2083045;28;1531;-63
2021/10/15 01:46:55;;;;;;;;;;;;;;;21.30;54.79;99576.63;2082955;28;842;-64
2021/10/15 01:47:56;;;;;;;;;;;;;;;21.29;55.17;99574.91;2083220;28;1036;-62
2021/10/15 01:48:56;;;;;;;;;;;;;;;21.29;54.38;99572.19;2083253;28;768;-65
2021/10/15 01:49:56;;;;;;;;;;;;;;;21.32;54.39;99572.03;2083165;28;1028;-62
2021/10/15 01:50:57;;;;;;;;;;;;;;;21.31;54.89;99567.59;2083085;28;756;-64
2021/10/15 01:51:57;;;;;;;;;;;;;;;21.29;54.84;99567.69;2082941;28;827;-62
2021/10/15 01:52:58;;;;;;;;;;;;;;;21.31;54.43;99562.22;2083124;28;762;-63
2021/10/15 01:53:58;;;;;;;;;;;;;;;21.29;54.93;99573.09;2083262;28;787;-64
2021/10/15 01:54:58;;;;;;;;;;;;;;;21.29;54.85;99565.00;2083009;28;899;-62
2021/10/15 01:55:58;;;;;;;;;;;;;;;21.30;55.13;99566.75;2083098;28;981;-64
2021/10/15 01:56:58;;;;;;;;;;;;;;;21.29;55.00;99564.13;2083132;28;858;-62
2021/10/15 01:57:58;;;;;;;;;;;;;;;21.29;55.03;99562.31;2082711;28;1898;-64
2021/10/15 01:58:58;;;;;;;;;;;;;;;21.28;55.28;99557.00;2083107;28;1013;-62
2021/10/15 01:59:59;;;;;;;;;;;;;;;21.29;55.53;99564.13;2085584;28;2139;-63
2021/10/15 02:00:59;;;;;;;;;;;;;;;21.29;55.38;99553.34;2091158;28;1043;-64
2021/10/15 02:02:00;;;;;;;;;;;;;;;21.27;55.53;99556.13;2091405;28;984;-62
2021/10/15 02:03:00;;;;;;;;;;;;;;;21.26;55.88;99561.59;2091396;28;783;-65
2021/10/15 02:04:00;;;;;;;;;;;;;;;21.30;55.36;99557.78;2091208;28;973;-63
2021/10/15 02:05:01;;;;;;;;;;;;;;;21.29;54.80;99556.03;2091366;28;779;-64
2021/10/15 02:06:01;;;;;;;;;;;;;;;21.30;55.06;99547.88;2091404;28;957;-62
2021/10/15 02:07:02;;;;;;;;;;;;;;;21.30;55.03;99547.88;2091298;28;1044;-63
2021/10/15 02:08:02;;;;;;;;;;;;;;;21.26;55.64;99538.25;2091364;28;799;-65
2021/10/15 02:09:02;;;;;;;;;;;;;;;21.26;55.48;99542.75;2091197;28;985;-62
2021/10/15 02:10:03;;;;;;;;;;;;;;;21.29;55.13;99542.56;2091259;28;1079;-65
2021/10/15 02:11:05;;;;;;;;;;;;;;;21.29;55.46;99542.56;2091328;28;985;-63
2021/10/15 02:12:06;;;;;;;;;;;;;;;21.28;55.73;99543.53;2091260;28;802;-64
2021/10/15 02:13:06;;;;;;;;;;;;;;;21.29;54.48;99537.19;2091238;28;2045;-63
2021/10/15 02:14:06;;;;;;;;;;;;;;;21.28;55.55;99540.84;2091346;28;878;-63
2021/10/15 02:15:07;;;;;;;;;;;;;;;21.27;55.05;99539.09;2090983;28;988;-65
2021/10/15 02:16:08;;;;;;;;;;;;;;;21.27;55.03;99534.59;2091321;28;838;-62
2021/10/15 02:17:08;;;;;;;;;;;;;;;21.26;55.30;99534.66;2091326;28;823;-65
2021/10/15 02:18:08;;;;;;;;;;;;;;;21.27;55.14;99533.72;2091244;28;1910;-62
2021/10/15 02:19:08;;;;;;;;;;;;;;;21.26;55.28;99532.84;2091352;28;977;-64
2021/10/15 02:20:10;;;;;;;;;;;;;;;21.24;55.56;99523.09;2091305;28;811;-63
2021/10/15 02:21:10;;;;;;;;;;;;;;;21.28;55.57;99519.28;2091367;28;799;-63
2021/10/15 02:22:10;;;;;;;;;;;;;;;21.27;55.03;99517.56;2091389;28;977;-64
2021/10/15 02:23:11;;;;;;;;;;;;;;;21.26;54.99;99521.19;2090944;28;1408;-63
2021/10/15 02:24:11;;;;;;;;;;;;;;;21.25;55.32;99509.56;2091392;28;981;-65
2021/10/15 02:25:12;;;;;;;;;;;;;;;21.26;55.14;99508.63;2091809;28;973;-62
2021/10/15 02:26:18;;;;;;;;;;;;;;;21.25;56.24;99508.69;2092944;28;886;-64
2021/10/15 02:27:19;;;;;;;;;;;;;;;21.24;55.65;99504.25;2092944;28;799;-62
2021/10/15 02:28:19;;;;;;;;;;;;;;;21.25;55.07;99506.00;2092738;28;874;-63
2021/10/15 02:29:19;;;;;;;;;;;;;;;21.26;55.33;99505.03;2092968;28;780;-65
2021/10/15 02:30:20;;;;;;;;;;;;;;;21.24;55.83;99512.34;2092906;28;859;-62
2021/10/15 02:31:20;;;;;;;;;;;;;;;21.25;56.04;99508.69;2092588;28;826;-65
2021/10/15 02:32:20;;;;;;;;;;;;;;;21.23;55.38;99505.22;2092874;28;1024;-63
2021/10/15 02:33:20;;;;;;;;;;;;;;;21.24;55.66;99509.66;2092882;28;851;-63
2021/10/15 02:34:20;;;;;;;;;;;;;;;21.24;55.41;99509.66;2092874;28;770;-63
2021/10/15 02:35:21;;;;;;;;;;;;;;;21.23;55.69;99502.53;2092913;28;1202;-63
2021/10/15 02:36:21;;;;;;;;;;;;;;;;;;2092864;28;1037;-64
2021/10/15 02:37:21;;;;;;;;;;;;;;;21.22;55.63;99500.78;2092790;28;1446;-63
2021/10/15 02:38:21;;;;;;;;;;;;;;;21.23;55.42;99495.31;2092753;28;1890;-64
2021/10/15 02:39:22;;;;;;;;;;;;;;;21.23;55.70;99491.75;2092503;28;1041;-63
2021/10/15 02:40:22;;;;;;;;;;;;;;;21.22;56.14;99482.81;2092931;28;785;-64
2021/10/15 02:41:22;;;;;;;;;;;;;;;21.22;55.57;99477.44;2092811;28;968;-62
2021/10/15 02:42:23;;;;;;;;;;;;;;;21.22;55.40;99473.84;2092567;28;779;-63
2021/10/15 02:43:23;;;;;;;;;;;;;;;21.20;55.97;99467.72;2092846;28;834;-65
2021/10/15 02:44:23;;;;;;;;;;;;;;;21.23;55.46;99470.19;2092764;28;830;-62
2021/10/15 02:45:23;;;;;;;;;;;;;;;21.20;56.14;99468.56;2092675;28;802;-65
2021/10/15 02:46:23;;;;;;;;;;;;;;;21.23;55.80;99467.50;2092731;28;889;-63
2021/10/15 02:47:23;;;;;;;;;;;;;;;21.27;55.36;99467.25;2092690;28;784;-64
2021/10/15 02:48:24;;;;;;;;;;;;;;;21.23;55.81;99462.13;2092676;28;906;-64
2021/10/15 02:49:24;;;;;;;;;;;;;;;21.22;55.32;99458.59;2092800;28;976;-63
2021/10/15 02:50:24;;;;;;;;;;;;;;;21.23;55.36;99456.75;2092594;28;760;-65
2021/10/15 02:51:24;;;;;;;;;;;;;;;;;;2092694;28;855;-63
2021/10/15 02:52:24;;;;;;;;;;;;;;;21.22;55.66;99411.91;2092686;28;1013;-65
2021/10/15 02:53:24;;;;;;;;;;;;;;;21.25;55.15;99414.44;2092603;28;783;-62
2021/10/15 02:54:24;;;;;;;;;;;;;;;21.24;54.39;99415.38;2092731;28;1039;-63
2021/10/15 02:55:24;;;;;;;;;;;;;;;21.26;55.60;99413.47;2092782;28;836;-65
2021/10/15 02:56:25;;;;;;;;;;;;;;;21.23;54.38;99398.38;2092548;28;929;-63
2021/10/15 02:57:25;;;;;;;;;;;;;;;;;;2092741;28;964;-65
2021/10/15 02:58:25;;;;;;;;;;;;;;;21.22;55.94;99439.72;2092484;28;1949;-63
2021/10/15 02:59:25;;;;;;;;;;;;;;;21.26;55.05;99503.22;2092521;28;850;-64
2021/10/15 03:00:25;;;;;;;;;;;;;;;21.28;55.53;99477.09;2092250;28;952;-65
2021/10/15 03:01:26;;;;;;;;;;;;;;;21.24;55.46;99456.66;2092606;28;1000;-62
2021/10/15 03:02:26;;;;;;;;;;;;;;;21.23;55.50;99451.34;2092686;28;840;-65
2021/10/15 03:03:26;;;;;;;;;;;;;;;21.21;55.90;99447.88;2092595;28;997;-62
2021/10/15 03:04:26;;;;;;;;;;;;;;;21.22;55.85;99449.63;2092516;28;973;-64
2021/10/15 03:05:26;;;;;;;;;;;;;;;21.22;55.23;99438.84;2092605;28;989;-62
2021/10/15 03:06:26;;;;;;;;;;;;;;;21.22;55.83;99439.72;2092624;28;936;-64
2021/10/15 03:07:27;;;;;;;;;;;;;;;21.20;55.56;99441.63;2092514;28;992;-66
2021/10/15 03:08:27;;;;;;;;;;;;;;;21.23;55.39;99432.50;2092610;28;767;-62
2021/10/15 03:09:27;;;;;;;;;;;;;;;21.22;55.81;99428.06;2092549;28;1055;-65
2021/10/15 03:10:27;;;;;;;;;;;;;;;21.20;55.16;99425.47;2092136;28;1064;-62
2021/10/15 03:11:27;;;;;;;;;;;;;;;21.21;55.87;99420.94;2092526;28;1298;-64
2021/10/15 03:12:27;;;;;;;;;;;;;;;;;;2092613;28;1008;-63
2021/10/15 03:13:27;;;;;;;;;;;;;;;;;;2092565;28;918;-63
2021/10/15 03:14:28;;;;;;;;;;;;;;;21.23;56.00;99401.06;2091921;28;1203;-65
2021/10/15 03:15:28;;;;;;;;;;;;;;;21.22;54.52;99404.72;2091898;28;782;-62
2021/10/15 03:16:28;;;;;;;;;;;;;;;21.23;55.08;99416.34;2092338;28;921;-64
2021/10/15 03:17:28;;;;;;;;;;;;;;;21.22;55.44;99406.53;2092591;28;854;-63
2021/10/15 03:18:28;;;;;;;;;;;;;;;21.20;55.46;99397.69;2092333;28;1910;-63
2021/10/15 03:19:29;;;;;;;;;;;;;;;21.23;55.35;99398.38;2092461;28;775;-65
2021/10/15 03:20:29;;;;;;;;;;;;;;;21.22;55.55;99403.84;2092531;28;996;-62
2021/10/15 03:21:29;;;;;;;;;;;;;;;21.25;54.73;99401.84;2092319;28;1020;-65
2021/10/15 03:22:29;;;;;;;;;;;;;;;21.22;55.58;99391.25;2092367;28;779;-63
2021/10/15 03:23:29;;;;;;;;;;;;;;;;;;2092525;28;853;-64
2021/10/15 03:24:30;;;;;;;;;;;;;;;21.22;55.05;99396.63;2092496;28;1000;-63
2021/10/15 03:25:30;;;;;;;;;;;;;;;21.23;55.27;99394.81;2092431;28;1059;-63
2021/10/15 03:26:30;;;;;;;;;;;;;;;21.23;55.82;99394.81;2092440;28;1405;-65
2021/10/15 03:27:30;;;;;;;;;;;;;;;21.22;54.73;99385.88;2092162;28;956;-62
2021/10/15 03:28:30;;;;;;;;;;;;;;;21.22;56.15;99393.06;2092534;28;774;-65
2021/10/15 03:29:30;;;;;;;;;;;;;;;21.22;54.91;99388.56;2092530;28;993;-62
2021/10/15 03:30:31;;;;;;;;;;;;;;;21.22;55.99;99387.69;2092336;28;822;-63
2021/10/15 03:31:31;;;;;;;;;;;;;;;21.22;54.82;99383.19;2092080;28;871;-64
2021/10/15 03:32:31;;;;;;;;;;;;;;;21.20;55.54;99377.00;2092337;28;969;-63
2021/10/15 03:33:31;;;;;;;;;;;;;;;21.22;54.79;99380.47;2092363;28;972;-64
2021/10/15 03:34:31;;;;;;;;;;;;;;;21.24;55.15;99380.38;2092460;28;976;-62
2021/10/15 03:35:32;;;;;;;;;;;;;;;21.24;55.50;99369.59;2092387;28;764;-63
2021/10/15 03:36:32;;;;;;;;;;;;;;;21.24;54.61;99372.28;2091558;28;1000;-64
2021/10/15 03:37:32;;;;;;;;;;;;;;;21.23;54.85;99370.56;2083745;28;1288;-62
2021/10/15 03:38:32;;;;;;;;;;;;;;;21.23;55.50;99368.75;2083472;28;1941;-64
2021/10/15 03:39:32;;;;;;;;;;;;;;;21.18;56.36;99366.34;2084074;28;751;-64
2021/10/15 03:40:33;;;;;;;;;;;;;;;21.18;55.65;99363.66;2084150;28;760;-62
2021/10/15 03:41:33;;;;;;;;;;;;;;;21.22;55.06;99361.63;2084060;28;1067;-65
2021/10/15 03:42:33;;;;;;;;;;;;;;;21.22;55.63;99363.44;2083919;28;788;-63
2021/10/15 03:43:33;;;;;;;;;;;;;;;21.20;54.97;99363.53;2084012;28;989;-64
2021/10/15 03:44:34;;;;;;;;;;;;;;;21.20;55.70;99360.00;2084077;28;811;-63
2021/10/15 03:45:34;;;;;;;;;;;;;;;21.23;56.18;99355.28;2084123;28;889;-63
2021/10/15 03:46:34;;;;;;;;;;;;;;;21.23;55.45;99354.41;2083764;28;763;-64
2021/10/15 03:47:35;;;;;;;;;;;;;;;21.23;54.75;99357.97;2084125;28;902;-62
2021/10/15 03:48:35;;;;;;;;;;;;;;;21.20;55.80;99354.63;2083995;28;843;-64
2021/10/15 03:49:35;;;;;;;;;;;;;;;21.20;55.32;99358.16;2084065;28;984;-63
2021/10/15 03:50:35;;;;;;;;;;;;;;;21.18;55.27;99350.19;2084042;28;815;-63
2021/10/15 03:51:35;;;;;;;;;;;;;;;21.23;54.99;99359.78;2083777;28;981;-63
2021/10/15 03:52:36;;;;;;;;;;;;;;;;;;2083364;28;958;-63
2021/10/15 03:53:36;;;;;;;;;;;;;;;;;;2083608;28;688;-65
2021/10/15 03:54:36;;;;;;;;;;;;;;;;;;2083796;28;1151;-62
2021/10/15 03:55:36;;;;;;;;;;;;;;;21.20;55.91;99344.69;2084090;28;838;-65
2021/10/15 03:56:36;;;;;;;;;;;;;;;21.22;55.23;99344.59;2083916;28;997;-63
2021/10/15 03:57:37;;;;;;;;;;;;;;;21.20;55.69;99338.47;2083948;28;1024;-64
2021/10/15 03:58:37;;;;;;;;;;;;;;;;;;2083899;28;1906;-62
2021/10/15 03:59:37;;;;;;;;;;;;;;;21.20;55.47;99336.63;2083923;28;941;-63
2021/10/15 04:00:37;;;;;;;;;;;;;;;21.22;55.76;99337.41;2083973;28;1040;-64
2021/10/15 04:01:37;;;;;;;;;;;;;;;21.20;55.76;99330.38;2083919;28;1025;-63
2021/10/15 04:02:41;;;;;;;;;;;;;;;21.22;55.28;99325.75;2083711;28;830;-65
2021/10/15 04:03:41;;;;;;;;;;;;;;;21.46;54.66;99318.03;2083355;28;1314;-62
2021/10/15 04:04:41;;;;;;;;;;;;;;;22.01;53.12;99304.81;2083410;28;874;-64
2021/10/15 04:05:42;;;;;;;;;;;;;;;22.23;52.11;99317.78;2083528;28;989;-63
2021/10/15 04:06:42;;;;;;;;;;;;;;;22.38;52.38;99305.09;2083916;28;770;-63
2021/10/15 04:07:43;;;;;;;;;;;;;;;22.46;51.74;99301.94;2083931;28;792;-64
2021/10/15 04:08:43;;;;;;;;;;;;;;;22.54;51.63;99298.75;2083719;28;807;-62
2021/10/15 04:09:43;;;;;;;;;;;;;;;22.67;50.69;99301.50;2083725;28;1276;-64
2021/10/15 04:10:43;;;;;;;;;;;;;;;22.72;51.23;99299.34;2083812;28;907;-62
2021/10/15 04:11:44;;;;;;;;;;;;;;;22.75;50.64;99300.00;2083925;28;1001;-63
2021/10/15 04:12:44;;;;;;;;;;;;;;;22.84;50.16;99293.13;2083823;28;1000;-63
2021/10/15 04:13:44;;;;;;;;;;;;;;;22.88;50.37;99286.56;2083867;28;849;-62
2021/10/15 04:14:44;;;;;;;;;;;;;;;22.93;50.26;99288.94;2083780;28;910;-64
2021/10/15 04:15:44;;;;;;;;;;;;;;;22.97;50.37;99295.00;2083720;28;699;-62
2021/10/15 04:16:44;;;;;;;;;;;;;;;22.98;50.15;99294.00;2083572;28;1192;-64
2021/10/15 04:17:45;;;;;;;;;;;;;;;23.05;50.13;99295.34;2083830;28;977;-62
2021/10/15 04:18:45;;;;;;;;;;;;;;;23.14;49.29;99286.59;2083495;28;1926;-63
2021/10/15 04:19:45;;;;;;;;;;;;;;;23.07;49.91;99282.59;2083840;28;855;-63
2021/10/15 04:20:45;;;;;;;;;;;;;;;23.13;49.30;99284.88;2083796;28;825;-63
2021/10/15 04:21:45;;;;;;;;;;;;;;;23.18;49.58;99285.44;2083645;28;989;-64
2021/10/15 04:22:45;;;;;;;;;;;;;;;23.27;48.83;99275.00;2083741;28;784;-62
2021/10/15 04:23:46;;;;;;;;;;;;;;;23.26;49.53;99273.25;2083707;28;768;-64
2021/10/15 04:24:46;;;;;;;;;;;;;;;23.19;49.61;99272.81;2083624;28;974;-62
2021/10/15 04:25:46;;;;;;;;;;;;;;;23.32;49.25;99262.88;2083777;28;820;-63
2021/10/15 04:26:46;;;;;;;;;;;;;;;23.31;49.12;99268.41;2083610;28;969;-62
2021/10/15 04:27:46;;;;;;;;;;;;;;;23.45;47.82;99270.13;2083690;28;978;-63
2021/10/15 04:28:46;;;;;;;;;;;;;;;23.34;50.11;99271.75;2083702;28;775;-64
2021/10/15 04:29:47;;;;;;;;;;;;;;;23.38;49.61;99272.41;2083502;28;808;-62
2021/10/15 04:30:47;;;;;;;;;;;;;;;23.33;49.12;99274.56;2083714;28;997;-65
2021/10/15 04:31:47;;;;;;;;;;;;;;;23.37;49.62;99262.56;2083673;28;797;-62
2021/10/15 04:32:47;;;;;;;;;;;;;;;23.36;49.26;99266.25;2083707;28;981;-63
2021/10/15 04:33:47;;;;;;;;;;;;;;;23.37;49.70;99260.72;2083766;28;1209;-63
2021/10/15 04:34:47;;;;;;;;;;;;;;;23.42;49.20;99268.53;2083641;28;856;-62
2021/10/15 04:35:47;;;;;;;;;;;;;;;23.53;48.22;99268.63;2083644;28;1045;-64
2021/10/15 04:36:48;;;;;;;;;;;;;;;23.47;48.96;99268.19;2084322;28;1501;-63
2021/10/15 04:37:48;;;;;;;;;;;;;;;23.46;49.26;99259.22;2091438;28;785;-63
2021/10/15 04:38:48;;;;;;;;;;;;;;;23.47;48.67;99254.69;2091875;28;1902;-63
2021/10/15 04:39:48;;;;;;;;;;;;;;;23.45;49.39;99240.41;2091800;28;977;-62
2021/10/15 04:40:48;;;;;;;;;;;;;;;23.45;49.11;99237.72;2092013;28;785;-65
2021/10/15 04:41:48;;;;;;;;;;;;;;;23.49;48.87;99241.94;2091906;28;752;-62
2021/10/15 04:42:49;;;;;;;;;;;;;;;23.58;48.81;99240.41;2091772;28;1055;-64
2021/10/15 04:43:49;;;;;;;;;;;;;;;23.64;48.40;99245.38;2092007;28;751;-62
2021/10/15 04:44:50;;;;;;;;;;;;;;;23.59;48.44;99242.13;2091533;28;807;-62
2021/10/15 04:45:51;;;;;;;;;;;;;;;23.61;47.99;99234.78;2091831;28;827;-64
2021/10/15 04:46:51;;;;;;;;;;;;;;;23.61;48.06;99235.66;2091789;28;883;-62
2021/10/15 04:47:51;;;;;;;;;;;;;;;23.64;48.08;99243.53;2091316;28;903;-64
2021/10/15 04:48:51;;;;;;;;;;;;;;;23.63;48.46;99236.41;2091783;28;1281;-62
2021/10/15 04:49:51;;;;;;;;;;;;;;;23.58;48.88;99235.00;2091835;28;997;-64
2021/10/15 04:50:51;;;;;;;;;;;;;;;23.66;47.53;99230.78;2091084;28;1163;-62
2021/10/15 04:51:52;;;;;;;;;;;;;;;23.63;49.00;99233.69;2091280;28;779;-63
2021/10/15 04:52:52;;;;;;;;;;;;;;;23.65;48.07;99220.06;2091171;28;804;-64
2021/10/15 04:53:52;;;;;;;;;;;;;;;23.62;47.99;99225.69;2090910;28;862;-62
2021/10/15 04:54:52;;;;;;;;;;;;;;;23.68;48.13;99219.84;2091697;28;760;-64
2021/10/15 04:55:52;;;;;;;;;;;;;;;23.71;47.59;99218.78;2091490;28;1501;-63
2021/10/15 04:56:52;;;;;;;;;;;;;;;23.70;48.00;99209.78;2091402;28;981;-63
2021/10/15 04:57:52;;;;;;;;;;;;;;;23.72;47.30;99209.69;2091774;28;976;-63
2021/10/15 04:58:53;;;;;;;;;;;;;;;23.75;47.54;99207.63;2091669;28;1957;-62
2021/10/15 04:59:53;;;;;;;;;;;;;;;23.74;47.98;99205.88;2091767;28;1064;-64
2021/10/15 05:00:53;;;;;;;;;;;;;;;23.73;47.58;99206.00;2091688;28;787;-62
2021/10/15 05:01:53;;;;;;;;;;;;;;;23.78;47.82;99210.09;2091846;28;1042;-64
2021/10/15 05:02:54;;;;;;;;;;;;;;;23.84;47.71;99198.00;2091612;28;1111;-62
2021/10/15 05:03:54;;;;;;;;;;;;;;;23.80;48.45;99202.75;2091731;28;1000;-64
2021/10/15 05:04:54;;;;;;;;;;;;;;;23.65;48.42;99198.44;2091431;28;988;-62
2021/10/15 05:05:54;;;;;;;;;;;;;;;23.79;47.96;99190.19;2091431;28;1273;-63
2021/10/15 05:06:57;;;;;;;;;;;;;;;23.73;47.75;99192.50;2091701;28;743;-63
2021/10/15 05:07:58;;;;;;;;;;;;;;;23.81;47.44;99187.41;2090864;28;1566;-62
2021/10/15 05:10:25;;;;;;;;;;;;;;;23.83;47.17;99178.19;2057938;28;1108;-63
2021/10/15 05:11:25;;;;;;;;;;;;;;;23.83;48.14;99177.34;2057724;28;1209;-64
2021/10/15 05:12:25;;;;;;;;;;;;;;;23.80;48.33;99177.56;2058101;28;1356;-62
2021/10/15 05:13:25;;;;;;;;;;;;;;;23.74;48.60;99170.75;2058213;28;879;-64
2021/10/15 05:14:26;;;;;;;;;;;;;;;23.79;48.12;99173.13;2058249;28;780;-62
2021/10/15 05:15:26;;;;;;;;;;;;;;;23.84;48.09;99174.50;2058169;28;1049;-64
2021/10/15 05:16:26;;;;;;;;;;;;;;;23.86;47.28;99168.97;2058116;28;985;-62
2021/10/15 05:17:26;;;;;;;;;;;;;;;23.87;48.00;99165.28;2057780;28;969;-62
2021/10/15 05:18:26;;;;;;;;;;;;;;;23.87;47.52;99161.75;2058056;28;1915;-64
2021/10/15 05:19:27;;;;;;;;;;;;;;;23.79;47.56;99171.28;2058031;28;1060;-61
2021/10/15 05:20:27;;;;;;;;;;;;;;;23.81;48.17;99161.22;2058061;28;1188;-64
2021/10/15 05:21:28;;;;;;;;;;;;;;;23.87;48.14;99161.75;2058095;28;962;-62
2021/10/15 05:22:28;;;;;;;;;;;;;;;23.91;47.16;99155.13;2057709;28;1027;-63
2021/10/15 05:23:28;;;;;;;;;;;;;;;23.94;47.59;99157.59;2058115;28;990;-63
2021/10/15 05:24:29;;;;;;;;;;;;;;;23.83;48.32;99142.19;2058096;28;835;-61
2021/10/15 05:25:29;;;;;;;;;;;;;;;23.95;47.37;99164.75;2057717;28;908;-63